Time;durP1;ratioP1;P1;durP2;ratioP2;P2;SDS_P1;SDS_P2;PMS_P1;PMS_P2;Temp;Humidity;BMP_temperature;BMP_pressure;BME280_temperature;BME280_humidity;BME280_pressure;Samples;Min_cycle;Max_cycle;Signal;HPM_P1;HPM_P2
2022/06/21 00:00:15;;;;;;;;;;;13.90;99.90;;;;;;5071170;28;19950;-66
2022/06/21 00:02:43;;;;;;;;;;;13.80;99.90;;;;;;5071350;28;19928;-66
2022/06/21 00:05:13;;;;;;;;;;;13.80;99.90;;;;;;5071197;28;19928;-66
2022/06/21 00:07:41;;;;;;;;;;;13.80;99.90;;;;;;5071267;28;19928;-67
2022/06/21 00:10:12;;;;;;;;;;;13.70;99.90;;;;;;5070888;28;19924;-67
2022/06/21 00:12:38;;;;;;;;;;;13.70;99.90;;;;;;5071324;28;19925;-67
2022/06/21 00:15:05;;;;;;;;;;;13.70;99.90;;;;;;5070722;28;19928;-66
2022/06/21 00:17:32;;;;;;;;;;;13.70;99.90;;;;;;5071020;28;19924;-67
2022/06/21 00:19:59;;;;;;;;;;;13.70;99.90;;;;;;5071046;28;19948;-67
2022/06/21 00:22:27;;;;;;;;;;;13.60;99.90;;;;;;5071260;28;19928;-67
2022/06/21 00:24:55;;;;;;;;;;;13.50;99.90;;;;;;5069913;28;19967;-66
2022/06/21 00:27:22;;;;;;;;;;;13.40;99.90;;;;;;5071550;28;19928;-65
2022/06/21 00:29:49;;;;;;;;;;;13.20;99.90;;;;;;5071472;28;19978;-66
2022/06/21 00:32:16;;;;;;;;;;;13.10;99.90;;;;;;5071832;28;19978;-65
2022/06/21 00:34:43;;;;;;;;;;;13.10;99.90;;;;;;5071552;28;19990;-66
2022/06/21 00:37:14;;;;;;;;;;;13.10;99.90;;;;;;5071553;28;20416;-65
2022/06/21 00:39:41;;;;;;;;;;;13.20;99.90;;;;;;5071830;28;19936;-66
2022/06/21 00:42:17;;;;;;;;;;;13.00;99.90;;;;;;5073406;28;19931;-66
2022/06/21 00:44:46;;;;;;;;;;;13.00;99.90;;;;;;5070313;28;19928;-66
2022/06/21 00:47:15;;;;;;;;;;;13.00;99.90;;;;;;5071690;28;19925;-68
2022/06/21 00:49:44;;;;;;;;;;;12.90;99.90;;;;;;5071340;28;19925;-68
2022/06/21 00:52:14;;;;;;;;;;;12.90;99.90;;;;;;5071198;28;19925;-68
2022/06/21 00:54:46;;;;;;;;;;;12.90;99.90;;;;;;5070919;28;19925;-65
2022/06/21 00:57:14;;;;;;;;;;;12.90;99.90;;;;;;5071241;28;20368;-66
2022/06/21 00:59:43;;;;;;;;;;;12.60;99.90;;;;;;5070891;28;19924;-66
2022/06/21 01:02:16;;;;;;;;;;;12.50;99.90;;;;;;5071436;28;19955;-66
2022/06/21 01:04:45;;;;;;;;;;;12.50;99.90;;;;;;5070824;28;20354;-66
2022/06/21 01:07:13;;;;;;;;;;;12.50;99.90;;;;;;5071512;28;19955;-66
2022/06/21 01:09:43;;;;;;;;;;;12.50;99.90;;;;;;5070890;28;19924;-66
2022/06/21 01:12:11;;;;;;;;;;;12.60;99.90;;;;;;5070633;28;19978;-66
2022/06/21 01:14:42;;;;;;;;;;;12.60;99.90;;;;;;5070623;28;19932;-65
2022/06/21 01:17:11;;;;;;;;;;;12.60;99.90;;;;;;5071279;28;19928;-65
2022/06/21 01:19:39;;;;;;;;;;;12.50;99.90;;;;;;5070789;28;19925;-65
2022/06/21 01:22:09;;;;;;;;;;;12.60;99.90;;;;;;5071255;28;20414;-65
2022/06/21 01:24:41;;;;;;;;;;;12.50;99.90;;;;;;5071034;28;19929;-66
2022/06/21 01:27:09;;;;;;;;;;;12.60;99.90;;;;;;5070725;28;19929;-65
2022/06/21 01:29:37;;;;;;;;;;;12.50;99.90;;;;;;5070537;28;19925;-66
2022/06/21 01:32:05;;;;;;;;;;;12.40;99.90;;;;;;5070145;28;20032;-66
2022/06/21 01:34:32;;;;;;;;;;;12.30;99.90;;;;;;5070086;28;20449;-65
2022/06/21 01:37:03;;;;;;;;;;;12.30;99.90;;;;;;5070645;28;19940;-69
2022/06/21 01:39:33;;;;;;;;;;;12.30;99.90;;;;;;5070540;28;19932;-66
2022/06/21 01:42:04;;;;;;;;;;;12.30;99.90;;;;;;5070945;28;19924;-65
2022/06/21 01:44:35;;;;;;;;;;;12.30;99.90;;;;;;5070235;28;19931;-65
2022/06/21 01:47:07;;;;;;;;;;;12.40;99.90;;;;;;5053777;28;20720;-65
2022/06/21 01:49:35;;;;;;;;;;;12.40;99.90;;;;;;5070532;28;19964;-65
2022/06/21 01:52:03;;;;;;;;;;;12.40;99.90;;;;;;5070462;28;19924;-66
2022/06/21 01:54:34;;;;;;;;;;;12.40;99.90;;;;;;5070574;28;20291;-66
2022/06/21 01:57:01;;;;;;;;;;;12.40;99.90;;;;;;5070695;28;19977;-66
2022/06/21 01:59:30;;;;;;;;;;;12.50;99.90;;;;;;5070133;28;19929;-65
2022/06/21 02:02:01;;;;;;;;;;;12.50;99.90;;;;;;5070704;28;19928;-66
2022/06/21 02:04:28;;;;;;;;;;;;;;;;;;5070127;28;19974;-65
2022/06/21 02:06:56;;;;;;;;;;;12.00;99.90;;;;;;5070637;28;19925;-65
2022/06/21 02:09:23;;;;;;;;;;;;;;;;;;5070172;28;19928;-65
2022/06/21 02:11:52;;;;;;;;;;;11.80;99.90;;;;;;5071710;28;19979;-65
2022/06/21 02:14:29;;;;;;;;;;;11.80;99.90;;;;;;5069857;28;19931;-65
2022/06/21 02:16:58;;;;;;;;;;;11.80;99.90;;;;;;5071578;28;19925;-66
2022/06/21 02:19:28;;;;;;;;;;;11.70;99.90;;;;;;5070231;28;20023;-65
2022/06/21 02:21:54;;;;;;;;;;;11.70;99.90;;;;;;5070193;28;19970;-65
2022/06/21 02:24:23;;;;;;;;;;;11.70;99.90;;;;;;5069814;28;20445;-65
2022/06/21 02:26:50;;;;;;;;;;;11.60;99.90;;;;;;5070437;28;19924;-66
2022/06/21 02:29:17;;;;;;;;;;;11.50;99.90;;;;;;5070223;28;19981;-65
2022/06/21 02:31:45;;;;;;;;;;;11.40;99.90;;;;;;5070117;28;19924;-64
2022/06/21 02:34:13;;;;;;;;;;;11.30;99.90;;;;;;5069725;28;19924;-65
2022/06/21 02:36:44;;;;;;;;;;;11.30;99.90;;;;;;5070354;28;19928;-65
2022/06/21 02:39:13;;;;;;;;;;;11.20;99.90;;;;;;5069608;28;19924;-65
2022/06/21 02:41:42;;;;;;;;;;;11.20;99.90;;;;;;5070206;28;20277;-65
2022/06/21 02:44:11;;;;;;;;;;;11.30;99.90;;;;;;5069765;28;19924;-65
2022/06/21 02:46:39;;;;;;;;;;;11.30;99.90;;;;;;5070620;28;20336;-65
2022/06/21 02:49:08;;;;;;;;;;;11.30;99.90;;;;;;5073530;28;19924;-65
2022/06/21 02:51:37;;;;;;;;;;;11.30;99.90;;;;;;5073495;28;19997;-66
2022/06/21 02:54:10;;;;;;;;;;;11.40;99.90;;;;;;5072934;28;19956;-65
2022/06/21 02:56:39;;;;;;;;;;;11.30;99.90;;;;;;5073781;28;19929;-65
2022/06/21 02:59:06;;;;;;;;;;;11.30;99.90;;;;;;5073579;28;19925;-65
2022/06/21 03:01:35;;;;;;;;;;;11.30;99.90;;;;;;5073439;28;19925;-65
2022/06/21 03:04:02;;;;;;;;;;;11.30;99.90;;;;;;5072602;28;19932;-66
2022/06/21 03:06:31;;;;;;;;;;;11.30;99.90;;;;;;5073116;28;20338;-65
2022/06/21 03:09:00;;;;;;;;;;;11.20;99.90;;;;;;5073006;28;19988;-65
2022/06/21 03:11:29;;;;;;;;;;;11.30;99.90;;;;;;5073221;28;19928;-66
2022/06/21 03:13:57;;;;;;;;;;;11.30;99.90;;;;;;5072955;28;19924;-66
2022/06/21 03:16:24;;;;;;;;;;;11.30;99.90;;;;;;5073172;28;19925;-65
2022/06/21 03:18:51;;;;;;;;;;;11.40;99.90;;;;;;5073226;28;19929;-66
2022/06/21 03:21:26;;;;;;;;;;;11.30;99.90;;;;;;5073143;28;19929;-65
2022/06/21 03:23:53;;;;;;;;;;;10.90;99.90;;;;;;5072785;28;19959;-65
2022/06/21 03:26:20;;;;;;;;;;;10.80;99.90;;;;;;5073297;28;20268;-64
2022/06/21 03:28:48;;;;;;;;;;;10.80;99.90;;;;;;5072886;28;19970;-66
2022/06/21 03:31:18;;;;;;;;;;;10.80;99.90;;;;;;5072877;28;20031;-65
2022/06/21 03:33:46;;;;;;;;;;;10.90;99.90;;;;;;5072932;28;19982;-65
2022/06/21 03:36:14;;;;;;;;;;;10.80;99.90;;;;;;5073080;28;19928;-65
2022/06/21 03:38:45;;;;;;;;;;;10.80;99.90;;;;;;5072908;28;20366;-65
2022/06/21 03:44:02;;;;;;;;;;;10.80;99.90;;;;;;5072359;28;20387;-65
2022/06/21 03:46:32;;;;;;;;;;;10.80;99.90;;;;;;5072649;28;19935;-65
2022/06/21 03:49:02;;;;;;;;;;;10.80;99.90;;;;;;5072767;28;19928;-64
2022/06/21 03:51:31;;;;;;;;;;;10.90;99.90;;;;;;5072745;28;20318;-68
2022/06/21 03:54:00;;;;;;;;;;;10.90;99.90;;;;;;5072178;28;19938;-68
2022/06/21 03:56:29;;;;;;;;;;;10.90;99.90;;;;;;5072700;28;19975;-65
2022/06/21 03:59:01;;;;;;;;;;;11.00;99.90;;;;;;5071851;28;19932;-65
2022/06/21 04:01:32;;;;;;;;;;;11.00;99.90;;;;;;5072856;28;19974;-65
2022/06/21 04:04:02;;;;;;;;;;;11.00;99.90;;;;;;5072245;28;19928;-65
2022/06/21 04:06:31;;;;;;;;;;;11.00;99.90;;;;;;5072722;28;19928;-65
2022/06/21 04:09:01;;;;;;;;;;;10.80;99.90;;;;;;5072250;28;19933;-67
2022/06/21 04:11:34;;;;;;;;;;;10.90;99.90;;;;;;5072563;28;20019;-67
2022/06/21 04:14:05;;;;;;;;;;;10.90;99.90;;;;;;5072192;28;19932;-68
2022/06/21 04:16:36;;;;;;;;;;;10.80;99.90;;;;;;5072508;28;19931;-68
2022/06/21 04:19:06;;;;;;;;;;;10.90;99.90;;;;;;5072276;28;19932;-67
2022/06/21 04:21:37;;;;;;;;;;;10.90;99.90;;;;;;5072393;28;19924;-68
2022/06/21 04:24:07;;;;;;;;;;;11.00;99.90;;;;;;5071792;28;19925;-68
2022/06/21 04:26:34;;;;;;;;;;;;;;;;;;5071826;28;19924;-67
2022/06/21 04:29:05;;;;;;;;;;;11.30;99.90;;;;;;5071829;28;19925;-67
2022/06/21 04:31:34;;;;;;;;;;;11.30;99.90;;;;;;5071769;28;19924;-68
2022/06/21 04:34:04;;;;;;;;;;;11.30;99.90;;;;;;5071739;28;19978;-68
2022/06/21 04:36:35;;;;;;;;;;;11.50;99.90;;;;;;5072106;28;19924;-67
2022/06/21 04:39:03;;;;;;;;;;;11.50;99.90;;;;;;5071344;28;20361;-68
2022/06/21 04:41:32;;;;;;;;;;;11.60;99.90;;;;;;5071830;28;20284;-68
2022/06/21 04:44:01;;;;;;;;;;;11.60;99.90;;;;;;5071326;28;19925;-68
2022/06/21 04:46:32;;;;;;;;;;;11.80;99.90;;;;;;5071535;28;19928;-66
2022/06/21 04:49:03;;;;;;;;;;;11.90;99.90;;;;;;5070591;28;19932;-65
2022/06/21 04:51:34;;;;;;;;;;;11.90;99.90;;;;;;5071327;28;20396;-66
2022/06/21 04:54:02;;;;;;;;;;;12.00;99.90;;;;;;5071044;28;19929;-66
2022/06/21 04:56:33;;;;;;;;;;;12.00;99.90;;;;;;5070776;28;19928;-66
2022/06/21 04:59:00;;;;;;;;;;;12.20;99.90;;;;;;5071346;28;19928;-66
2022/06/21 05:01:37;;;;;;;;;;;12.30;99.90;;;;;;5063458;28;20643;-65
2022/06/21 05:04:06;;;;;;;;;;;12.50;99.90;;;;;;5041102;28;19925;-66
2022/06/21 05:06:35;;;;;;;;;;;12.70;99.90;;;;;;5047238;28;20343;-65
2022/06/21 05:09:02;;;;;;;;;;;12.70;99.90;;;;;;5030081;28;19929;-66
2022/06/21 05:11:29;;;;;;;;;;;12.90;99.90;;;;;;5030210;28;20404;-66
2022/06/21 05:13:57;;;;;;;;;;;13.00;99.90;;;;;;5029475;28;19929;-66
2022/06/21 05:16:25;;;;;;;;;;;13.10;99.90;;;;;;5030303;28;19925;-65
2022/06/21 05:18:54;;;;;;;;;;;13.20;99.90;;;;;;5030434;28;19929;-67
2022/06/21 05:21:28;;;;;;;;;;;13.30;99.90;;;;;;5030625;28;19956;-66
2022/06/21 05:23:56;;;;;;;;;;;13.40;99.90;;;;;;5030928;28;19928;-66
2022/06/21 05:26:30;;;;;;;;;;;13.60;99.90;;;;;;5031173;28;19971;-65
2022/06/21 05:28:59;;;;;;;;;;;13.60;99.90;;;;;;5031476;28;19925;-66
2022/06/21 05:31:27;;;;;;;;;;;13.70;99.90;;;;;;5030724;28;19925;-66
2022/06/21 05:33:57;;;;;;;;;;;13.90;99.90;;;;;;5034006;28;19925;-67
2022/06/21 05:36:28;;;;;;;;;;;14.00;99.90;;;;;;5040403;28;20347;-67
2022/06/21 05:38:57;;;;;;;;;;;14.10;99.90;;;;;;5041899;28;19987;-67
2022/06/21 05:41:31;;;;;;;;;;;14.30;99.90;;;;;;5050106;28;19925;-68
2022/06/21 05:43:59;;;;;;;;;;;14.40;99.90;;;;;;5049492;28;19929;-68
2022/06/21 05:46:27;;;;;;;;;;;14.60;99.90;;;;;;5037378;28;19925;-68
2022/06/21 05:48:55;;;;;;;;;;;14.60;99.90;;;;;;5029704;28;19925;-68
2022/06/21 05:51:25;;;;;;;;;;;14.70;99.90;;;;;;5030272;28;19971;-67
2022/06/21 05:53:54;;;;;;;;;;;14.70;99.90;;;;;;5029679;28;20355;-69
2022/06/21 05:56:24;;;;;;;;;;;14.70;99.90;;;;;;5029812;28;19929;-68
2022/06/21 05:58:53;;;;;;;;;;;14.70;99.90;;;;;;5029641;28;20466;-67
2022/06/21 06:01:22;;;;;;;;;;;14.80;99.90;;;;;;5030131;28;20359;-67
2022/06/21 06:03:53;;;;;;;;;;;14.90;99.90;;;;;;5029624;28;19979;-68
2022/06/21 06:06:21;;;;;;;;;;;15.00;99.90;;;;;;5029766;28;20348;-69
2022/06/21 06:08:50;;;;;;;;;;;15.10;99.90;;;;;;5029583;28;20018;-68
2022/06/21 06:11:57;;;;;;;;;;;15.20;99.90;;;;;;5036870;28;19965;-68
2022/06/21 06:14:15;;;;;;;;;;;15.30;99.90;;;;;;5039710;28;19956;-68
2022/06/21 06:16:43;;;;;;;;;;;15.40;99.90;;;;;;5040290;28;19924;-68
2022/06/21 06:19:12;;;;;;;;;;;15.50;99.90;;;;;;5049113;28;20314;-68
2022/06/21 06:21:41;;;;;;;;;;;15.50;99.90;;;;;;5051707;28;19966;-68
2022/06/21 06:24:12;;;;;;;;;;;15.70;99.90;;;;;;5052893;28;20466;-67
2022/06/21 06:26:40;;;;;;;;;;;15.80;99.90;;;;;;5053650;28;19925;-67
2022/06/21 06:29:12;;;;;;;;;;;15.80;99.90;;;;;;5052958;28;20389;-67
2022/06/21 06:31:46;;;;;;;;;;;16.00;99.90;;;;;;5053957;28;20399;-66
2022/06/21 06:34:15;;;;;;;;;;;16.20;99.90;;;;;;5053174;28;20296;-67
2022/06/21 06:36:43;;;;;;;;;;;16.30;99.90;;;;;;5053145;28;19924;-67
2022/06/21 06:39:15;;;;;;;;;;;16.60;99.90;;;;;;5052919;28;19975;-67
2022/06/21 06:41:46;;;;;;;;;;;16.70;99.90;;;;;;5053242;28;20354;-67
2022/06/21 06:44:13;;;;;;;;;;;16.80;99.90;;;;;;5052686;28;19928;-67
2022/06/21 06:46:43;;;;;;;;;;;17.00;99.90;;;;;;5053011;28;19929;-66
2022/06/21 06:49:15;;;;;;;;;;;17.20;99.90;;;;;;5052958;28;20384;-68
2022/06/21 06:51:44;;;;;;;;;;;17.30;99.90;;;;;;5052842;28;19932;-67
2022/06/21 06:54:16;;;;;;;;;;;17.50;99.90;;;;;;5052578;28;19925;-67
2022/06/21 06:56:51;;;;;;;;;;;17.50;99.90;;;;;;5052804;28;19925;-67
2022/06/21 06:59:19;;;;;;;;;;;17.40;99.90;;;;;;5052675;28;19925;-67
2022/06/21 07:01:49;;;;;;;;;;;17.50;99.90;;;;;;5052930;28;19948;-67
2022/06/21 07:04:17;;;;;;;;;;;17.20;99.90;;;;;;5052239;28;19925;-66
2022/06/21 07:06:47;;;;;;;;;;;17.20;99.90;;;;;;5052871;28;19935;-67
2022/06/21 07:09:17;;;;;;;;;;;17.30;99.90;;;;;;5052585;28;19925;-67
2022/06/21 07:11:48;;;;;;;;;;;17.50;99.90;;;;;;5039551;28;19929;-67
2022/06/21 07:14:17;;;;;;;;;;;17.50;99.90;;;;;;5032439;28;20392;-67
2022/06/21 07:16:44;;;;;;;;;;;17.50;99.90;;;;;;5032706;28;19925;-67
2022/06/21 07:19:12;;;;;;;;;;;17.70;99.90;;;;;;5032675;28;19929;-67
2022/06/21 07:21:39;;;;;;;;;;;17.80;99.90;;;;;;5032755;28;19925;-67
2022/06/21 07:24:09;;;;;;;;;;;17.80;99.90;;;;;;5032302;28;20397;-67
2022/06/21 07:26:41;;;;;;;;;;;17.90;99.90;;;;;;5032769;28;19968;-67
2022/06/21 07:29:10;;;;;;;;;;;17.90;99.90;;;;;;5032496;28;19961;-67
2022/06/21 07:31:40;;;;;;;;;;;18.10;99.90;;;;;;5032346;28;19932;-67
2022/06/21 07:34:09;;;;;;;;;;;18.20;99.90;;;;;;5031780;28;19925;-67
2022/06/21 07:36:40;;;;;;;;;;;18.20;99.90;;;;;;5032609;28;19937;-67
2022/06/21 07:39:09;;;;;;;;;;;18.30;99.90;;;;;;5032221;28;19929;-67
2022/06/21 07:41:38;;;;;;;;;;;18.50;99.90;;;;;;5031864;28;20347;-67
2022/06/21 07:44:07;;;;;;;;;;;18.60;99.90;;;;;;5031969;28;19925;-67
2022/06/21 07:46:35;;;;;;;;;;;18.70;99.90;;;;;;5032206;28;20356;-68
2022/06/21 07:49:06;;;;;;;;;;;19.00;99.90;;;;;;5031719;28;20385;-68
2022/06/21 07:51:35;;;;;;;;;;;19.10;99.90;;;;;;5031938;28;19925;-67
2022/06/21 07:54:06;;;;;;;;;;;19.10;99.90;;;;;;5031390;28;19925;-68
2022/06/21 07:56:35;;;;;;;;;;;19.10;99.90;;;;;;5031841;28;20404;-67
2022/06/21 07:59:04;;;;;;;;;;;19.30;99.90;;;;;;5031498;28;19932;-67
2022/06/21 08:07:06;;;;;;;;;;;19.60;99.90;;;;;;5032048;28;19952;-67
2022/06/21 08:09:38;;;;;;;;;;;19.80;99.90;;;;;;5031355;28;20343;-67
2022/06/21 08:12:07;;;;;;;;;;;19.90;99.90;;;;;;5047722;28;20289;-67
2022/06/21 08:14:34;;;;;;;;;;;19.80;99.90;;;;;;5051044;28;19925;-67
2022/06/21 08:17:06;;;;;;;;;;;19.90;99.90;;;;;;5051282;28;20384;-67
2022/06/21 08:19:36;;;;;;;;;;;19.90;99.90;;;;;;5051016;28;20285;-67
2022/06/21 08:22:06;;;;;;;;;;;19.90;99.90;;;;;;5051170;28;19932;-68
2022/06/21 08:24:35;;;;;;;;;;;20.10;99.90;;;;;;5051148;28;19925;-67
2022/06/21 08:27:07;;;;;;;;;;;20.00;99.90;;;;;;5051481;28;20335;-67
2022/06/21 08:29:35;;;;;;;;;;;20.00;99.90;;;;;;5050750;28;19929;-67
2022/06/21 08:32:04;;;;;;;;;;;20.00;99.90;;;;;;5051175;28;19970;-68
2022/06/21 08:34:33;;;;;;;;;;;20.00;99.90;;;;;;5050524;28;19960;-67
2022/06/21 08:37:05;;;;;;;;;;;19.90;99.90;;;;;;5050900;28;20578;-67
2022/06/21 08:39:34;;;;;;;;;;;20.00;99.90;;;;;;5050299;28;20454;-66
2022/06/21 08:42:11;;;;;;;;;;;20.40;99.90;;;;;;5050919;28;20416;-67
2022/06/21 08:47:59;;;;;;;;;;;20.90;99.90;;;;;;5052103;28;19931;-67
2022/06/21 08:50:41;;;;;;;;;;;21.10;99.90;;;;;;5050605;28;19933;-67
2022/06/21 08:53:16;;;;;;;;;;;21.40;99.90;;;;;;5048208;28;19932;-67
2022/06/21 08:55:47;;;;;;;;;;;21.80;99.90;;;;;;5050538;28;19925;-68
2022/06/21 08:58:24;;;;;;;;;;;21.90;99.90;;;;;;5050566;28;19929;-67
2022/06/21 09:00:55;;;;;;;;;;;21.90;99.90;;;;;;5050598;28;19932;-67
2022/06/21 09:03:40;;;;;;;;;;;21.60;99.90;;;;;;5050512;28;19925;-67
2022/06/21 09:06:14;;;;;;;;;;;21.50;99.90;;;;;;5050456;28;19968;-67
2022/06/21 09:08:57;;;;;;;;;;;21.70;99.90;;;;;;5050490;28;19929;-67
2022/06/21 09:11:27;;;;;;;;;;;21.90;99.90;;;;;;5040128;28;19925;-68
2022/06/21 09:14:04;;;;;;;;;;;22.00;99.90;;;;;;5030147;28;19975;-68
2022/06/21 09:16:33;;;;;;;;;;;22.00;99.90;;;;;;5030483;28;19936;-68
2022/06/21 09:19:08;;;;;;;;;;;22.10;99.90;;;;;;5029927;28;19925;-67
2022/06/21 09:21:41;;;;;;;;;;;22.00;99.90;;;;;;5030530;28;20024;-66
2022/06/21 09:24:17;;;;;;;;;;;22.00;99.90;;;;;;5029988;28;19929;-67
2022/06/21 09:26:45;;;;;;;;;;;21.90;99.90;;;;;;5030444;28;20293;-67
2022/06/21 09:29:19;;;;;;;;;;;22.00;99.90;;;;;;5029778;28;20389;-68
2022/06/21 09:31:52;;;;;;;;;;;22.10;99.90;;;;;;5030168;28;20397;-68
2022/06/21 09:34:23;;;;;;;;;;;22.10;99.90;;;;;;5029863;28;19929;-68
2022/06/21 09:36:55;;;;;;;;;;;22.10;99.90;;;;;;5030141;28;19925;-67
2022/06/21 09:39:24;;;;;;;;;;;22.30;99.90;;;;;;5029436;28;19925;-67
2022/06/21 09:41:56;;;;;;;;;;;22.50;99.90;;;;;;5030097;28;19937;-68
2022/06/21 09:44:29;;;;;;;;;;;22.30;99.90;;;;;;5076760;22;20456;-64
2022/06/21 09:46:59;;;;;;;;;;;22.50;99.90;;;;;;5090014;28;19951;-65
2022/06/21 09:49:33;;;;;;;;;;;22.70;99.90;;;;;;5090612;28;19924;-64
2022/06/21 09:52:03;;;;;;;;;;;22.70;99.90;;;;;;5091393;28;20459;-64
2022/06/21 09:54:33;;;;;;;;;;;22.90;99.90;;;;;;5089707;28;19928;-64
2022/06/21 09:57:04;;;;;;;;;;;22.90;99.90;;;;;;5089807;28;20353;-65
2022/06/21 09:59:35;;;;;;;;;;;23.00;99.90;;;;;;5089673;28;19928;-65
2022/06/21 10:02:04;;;;;;;;;;;23.00;99.90;;;;;;5089891;28;20019;-64
2022/06/21 10:04:33;;;;;;;;;;;22.80;99.90;;;;;;5089448;28;19924;-64
2022/06/21 10:07:03;;;;;;;;;;;22.60;99.90;;;;;;5090224;28;19985;-65
2022/06/21 10:09:39;;;;;;;;;;;22.60;99.90;;;;;;5089644;28;20377;-64
2022/06/21 10:12:13;;;;;;;;;;;22.80;99.90;;;;;;5106139;28;20019;-64
2022/06/21 10:14:50;;;;;;;;;;;23.00;99.90;;;;;;5109813;28;19924;-64
2022/06/21 10:17:25;;;;;;;;;;;22.90;99.90;;;;;;5110147;28;19924;-64
2022/06/21 10:20:01;;;;;;;;;;;22.90;99.90;;;;;;5110065;28;19924;-65
2022/06/21 10:22:31;;;;;;;;;;;22.80;99.90;;;;;;5110134;28;19931;-65
2022/06/21 10:25:06;;;;;;;;;;;22.70;99.90;;;;;;5109851;28;19923;-64
2022/06/21 10:27:41;;;;;;;;;;;22.50;99.90;;;;;;5110245;28;19923;-66
2022/06/21 10:30:24;;;;;;;;;;;22.50;99.90;;;;;;5109969;28;19974;-66
2022/06/21 10:33:06;;;;;;;;;;;22.20;99.90;;;;;;5110092;28;19928;-66
2022/06/21 10:35:47;;;;;;;;;;;22.10;99.90;;;;;;5106432;28;20186;-66
2022/06/21 10:38:20;;;;;;;;;;;22.00;99.90;;;;;;5110628;28;19927;-66
2022/06/21 10:40:52;;;;;;;;;;;22.00;99.90;;;;;;5109784;28;19924;-66
2022/06/21 10:43:35;;;;;;;;;;;22.00;99.90;;;;;;5110038;28;19924;-66
2022/06/21 10:46:08;;;;;;;;;;;22.10;99.90;;;;;;5110474;28;19977;-66
2022/06/21 10:48:52;;;;;;;;;;;22.20;99.90;;;;;;5109984;28;20106;-66
2022/06/21 10:51:24;;;;;;;;;;;22.70;99.90;;;;;;5110209;28;19924;-66
2022/06/21 10:54:15;;;;;;;;;;;23.20;99.90;;;;;;5109578;28;19924;-66
2022/06/21 11:02:27;;;;;;;;;;;24.40;99.90;;;;;;5108758;28;20010;-66
2022/06/21 11:04:58;;;;;;;;;;;24.40;99.90;;;;;;5109786;28;20382;-66
2022/06/21 11:07:30;;;;;;;;;;;24.50;99.90;;;;;;5109970;28;19981;-66
2022/06/21 11:10:00;;;;;;;;;;;24.70;99.90;;;;;;5113277;28;20286;-67
2022/06/21 11:15:25;;;;;;;;;;;24.80;99.90;;;;;;5092747;28;19931;-66
2022/06/21 11:17:59;;;;;;;;;;;24.80;99.90;;;;;;5092862;28;20440;-66
2022/06/21 11:20:30;;;;;;;;;;;25.10;99.90;;;;;;5093096;28;19928;-66
2022/06/21 11:23:02;;;;;;;;;;;25.80;99.90;;;;;;5092901;28;20348;-66
2022/06/21 11:25:33;;;;;;;;;;;26.20;99.90;;;;;;5092952;28;19924;-66
2022/06/21 11:28:05;;;;;;;;;;;26.30;99.90;;;;;;5092847;28;19931;-66
2022/06/21 11:30:37;;;;;;;;;;;26.50;99.90;;;;;;5092457;28;20322;-66
2022/06/21 11:33:10;;;;;;;;;;;26.60;99.90;;;;;;5092538;28;19928;-66
2022/06/21 11:35:42;;;;;;;;;;;26.90;99.90;;;;;;5092252;28;19924;-66
2022/06/21 11:38:20;;;;;;;;;;;26.90;99.90;;;;;;5092928;28;19924;-66
2022/06/21 11:40:52;;;;;;;;;;;27.10;99.90;;;;;;5091947;28;19977;-66
2022/06/21 11:43:25;;;;;;;;;;;27.50;99.90;;;;;;5092322;28;20357;-66
2022/06/21 11:45:55;;;;;;;;;;;27.40;99.90;;;;;;5092411;28;19924;-65
2022/06/21 11:48:39;;;;;;;;;;;27.50;99.90;;;;;;5092040;28;20296;-66
2022/06/21 11:51:14;;;;;;;;;;;27.00;99.90;;;;;;5092122;28;20345;-64
2022/06/21 11:53:57;;;;;;;;;;;26.60;99.90;;;;;;5091909;28;19928;-65
2022/06/21 11:56:26;;;;;;;;;;;26.50;99.90;;;;;;5092307;28;19924;-65
2022/06/21 11:58:56;;;;;;;;;;;27.00;99.90;;;;;;5091709;28;20383;-65
2022/06/21 12:01:25;;;;;;;;;;;27.40;99.90;;;;;;5092057;28;19924;-65
2022/06/21 12:04:00;;;;;;;;;;;27.60;99.90;;;;;;5091392;28;19957;-65
2022/06/21 12:06:30;;;;;;;;;;;27.70;99.90;;;;;;5091821;28;19924;-65
2022/06/21 12:09:01;;;;;;;;;;;28.40;99.90;;;;;;5091739;28;19931;-65
2022/06/21 12:11:33;;;;;;;;;;;28.20;99.90;;;;;;5102825;28;19924;-65
2022/06/21 12:14:07;;;;;;;;;;;28.40;99.90;;;;;;5111797;28;19924;-65
2022/06/21 12:16:38;;;;;;;;;;;28.90;99.90;;;;;;5111975;28;19927;-65
2022/06/21 12:19:07;;;;;;;;;;;29.10;99.90;;;;;;5111582;28;19935;-66
2022/06/21 12:21:37;;;;;;;;;;;28.80;99.90;;;;;;5111919;28;19923;-66
2022/06/21 12:24:05;;;;;;;;;;;28.80;99.90;;;;;;5111611;28;19923;-66
2022/06/21 12:26:33;;;;;;;;;;;29.20;99.90;;;;;;5111854;28;19931;-65
2022/06/21 12:29:00;;;;;;;;;;;29.10;99.90;;;;;;5111616;28;20341;-65
2022/06/21 12:31:29;;;;;;;;;;;29.20;99.90;;;;;;5111571;28;19924;-66
2022/06/21 12:33:58;;;;;;;;;;;29.50;99.90;;;;;;5111433;28;19927;-65
2022/06/21 12:36:31;;;;;;;;;;;29.50;99.90;;;;;;5111633;28;19927;-66
2022/06/21 12:39:00;;;;;;;;;;;29.20;99.90;;;;;;5111344;28;19923;-65
2022/06/21 12:41:32;;;;;;;;;;;28.80;99.90;;;;;;5111032;28;20379;-66
2022/06/21 12:44:04;;;;;;;;;;;28.80;99.90;;;;;;5111120;28;19977;-66
2022/06/21 12:46:38;;;;;;;;;;;28.50;99.90;;;;;;5111760;28;19927;-70
2022/06/21 12:49:19;;;;;;;;;;;28.10;99.90;;;;;;5091829;28;19970;-69
2022/06/21 12:51:51;;;;;;;;;;;27.40;99.90;;;;;;5090759;28;19928;-66
2022/06/21 12:54:33;;;;;;;;;;;27.10;99.90;;;;;;5090350;28;19924;-66
2022/06/21 12:57:09;;;;;;;;;;;26.70;99.90;;;;;;5088098;28;19924;-66
2022/06/21 12:59:42;;;;;;;;;;;26.70;99.90;;;;;;5081608;28;19948;-67
2022/06/21 13:02:21;;;;;;;;;;;27.10;99.90;;;;;;5088486;28;20321;-66
2022/06/21 13:05:02;;;;;;;;;;;27.10;99.90;;;;;;5091219;28;19924;-66
2022/06/21 13:07:39;;;;;;;;;;;27.50;99.90;;;;;;5081024;28;19928;-67
2022/06/21 13:10:27;;;;;;;;;;;27.90;99.90;;;;;;5091406;28;19924;-65
2022/06/21 13:13:13;;;;;;;;;;;28.10;99.90;;;;;;5091467;28;19924;-64
2022/06/21 13:15:44;;;;;;;;;;;28.30;99.90;;;;;;5091782;28;19928;-66
2022/06/21 13:18:21;;;;;;;;;;;28.10;99.90;;;;;;5091885;28;19931;-67
2022/06/21 13:20:54;;;;;;;;;;;27.90;99.90;;;;;;5091533;28;19924;-66
2022/06/21 13:23:31;;;;;;;;;;;27.70;99.90;;;;;;5091179;28;20387;-66
2022/06/21 13:26:03;;;;;;;;;;;27.80;99.90;;;;;;5091314;28;19925;-66
2022/06/21 13:28:37;;;;;;;;;;;27.40;99.90;;;;;;5091204;28;19928;-66
2022/06/21 13:31:06;;;;;;;;;;;27.30;99.90;;;;;;5089427;28;19928;-66
2022/06/21 13:33:55;;;;;;;;;;;27.70;99.90;;;;;;5074262;28;20343;-65
2022/06/21 13:36:26;;;;;;;;;;;27.80;99.90;;;;;;5071201;28;19924;-66
2022/06/21 13:38:56;;;;;;;;;;;27.90;99.90;;;;;;5070994;28;19971;-66
2022/06/21 13:44:13;;;;;;;;;;;28.80;99.90;;;;;;5070138;28;19924;-66
2022/06/21 13:46:44;;;;;;;;;;;28.80;99.90;;;;;;5075195;28;19936;-67
2022/06/21 13:49:17;;;;;;;;;;;28.90;99.90;;;;;;5090403;28;19928;-66
2022/06/21 13:51:46;;;;;;;;;;;28.80;99.90;;;;;;5090985;28;19928;-71
2022/06/21 13:54:17;;;;;;;;;;;28.40;99.90;;;;;;5090544;28;19924;-66
2022/06/21 13:56:47;;;;;;;;;;;28.30;99.90;;;;;;5091077;28;19927;-66
2022/06/21 13:59:16;;;;;;;;;;;28.30;99.90;;;;;;5084908;28;19924;-65
2022/06/21 14:01:47;;;;;;;;;;;28.40;99.90;;;;;;5087722;28;20415;-65
2022/06/21 14:04:17;;;;;;;;;;;29.10;99.90;;;;;;5080718;28;19925;-66
2022/06/21 14:06:49;;;;;;;;;;;30.50;99.90;;;;;;5090311;28;19928;-66
2022/06/21 14:09:22;;;;;;;;;;;30.90;99.90;;;;;;5086223;28;20334;-65
2022/06/21 14:11:51;;;;;;;;;;;30.30;99.90;;;;;;5090555;28;19939;-66
2022/06/21 14:14:24;;;;;;;;;;;30.60;99.90;;;;;;5090432;28;19935;-66
2022/06/21 14:16:52;;;;;;;;;;;31.20;99.90;;;;;;5090786;28;19924;-66
2022/06/21 14:19:23;;;;;;;;;;;31.60;99.90;;;;;;5090202;28;19988;-66
2022/06/21 14:21:55;;;;;;;;;;;31.70;99.90;;;;;;5090665;28;19924;-66
2022/06/21 14:24:28;;;;;;;;;;;32.30;99.90;;;;;;5090079;28;20460;-66
2022/06/21 14:26:58;;;;;;;;;;;31.60;99.90;;;;;;5090620;28;19931;-66
2022/06/21 14:29:28;;;;;;;;;;;31.80;99.90;;;;;;5089984;28;19924;-66
2022/06/21 14:32:02;;;;;;;;;;;32.00;99.90;;;;;;5090006;28;19924;-66
2022/06/21 14:34:33;;;;;;;;;;;30.90;99.90;;;;;;5090031;28;19932;-66
2022/06/21 14:37:02;;;;;;;;;;;30.10;99.90;;;;;;5091022;28;19972;-66
2022/06/21 14:39:33;;;;;;;;;;;29.60;99.90;;;;;;5084621;28;19939;-67
2022/06/21 14:42:06;;;;;;;;;;;29.50;99.90;;;;;;5086169;28;19924;-66
2022/06/21 14:44:40;;;;;;;;;;;29.80;99.90;;;;;;5085866;28;19924;-66
2022/06/21 14:47:14;;;;;;;;;;;30.60;99.90;;;;;;5094181;28;19924;-66
2022/06/21 14:49:43;;;;;;;;;;;31.50;99.90;;;;;;5086919;28;19924;-66
2022/06/21 14:52:23;;;;;;;;;;;31.90;99.90;;;;;;5093942;28;20411;-67
2022/06/21 14:55:03;;;;;;;;;;;32.30;99.90;;;;;;5093077;28;19924;-67
2022/06/21 14:57:44;;;;;;;;;;;32.10;99.90;;;;;;5093586;28;20016;-67
2022/06/21 15:00:14;;;;;;;;;;;31.20;99.90;;;;;;5094165;28;19924;-67
2022/06/21 15:02:46;;;;;;;;;;;30.00;99.90;;;;;;5087568;28;19990;-67